Flight Track Log - Related Links

Times and Time Zones

All times are in EDT time to prevent confusion due to time zone crossing. See the TMC875 flight status page for this flight to view local times or setup timezone preferences in your user account.

Time Position Orientation Groundspeed Altitude Reporting Facility
EDT Latitude Longitude Course Direction KTS MPH feet Rate Location/Type
Tue 01:09:59 PM 27.3667 -82.5333 119° Southeast 185 213 1,800  Level Tampa TRACON
Tue 01:10:35 PM 27.3500 -82.5000 119° Southeast 195 224 2,900 2,588 Climbing Tampa TRACON
Tue 01:12:39 PM 27.2819 -82.5603 218° Southwest 130 150 8,700 3,065 Climbing Miami Center
Tue 01:13:39 PM 27.3314 -82.6281 309° West 164 189 12,300 3,200 Climbing Miami Center
Tue 01:14:39 PM 27.3869 -82.6986 312° West 236 272 15,100 2,550 Climbing Miami Center
Tue 01:15:39 PM 27.4347 -82.7572 313° West 263 303 17,400 2,100 Climbing Miami Center
Tue 01:16:39 PM 27.5103 -82.8008 333° Northwest 310 357 19,300 2,121 Climbing Miami Center
Tue 01:18:57 PM 27.7325 -82.7917 North 330 380 24,400 1,939 Climbing Jacksonville Center
Tue 01:19:57 PM 27.8306 -82.7894 North 335 386 25,700 807 Climbing Jacksonville Center
Tue 01:20:56 PM 27.9392 -82.7892 360° North 355 409 26,000 150 Climbing Jacksonville Center
Tue 01:21:57 PM 28.0497 -82.7914 359° North 378 435 26,000  Level Jacksonville Center
Tue 01:22:57 PM 28.1644 -82.7889 North 391 450 26,000 400 Level Jacksonville Center
Tue 01:23:57 PM 28.2792 -82.7889 360° North 402 463 26,800 1,550 Climbing Jacksonville Center
Tue 01:24:57 PM 28.3919 -82.7864 North 402 463 29,100 2,250 Climbing Jacksonville Center
Tue 01:25:57 PM 28.5025 -82.7792 North 397 457 31,300 1,750 Climbing Jacksonville Center
Tue 01:26:57 PM 28.6111 -82.7697 North 397 457 32,600 1,160 Climbing Jacksonville Center
Tue 01:27:56 PM 28.7194 -82.7575 North 397 457 33,600 700 Climbing Jacksonville Center
Tue 01:28:57 PM 28.8344 -82.7481 North 392 451 34,000 198 Climbing Jacksonville Center
Tue 01:29:57 PM 28.9511 -82.7358 North 409 471 34,000 500 Level Jacksonville Center
Tue 01:30:57 PM 29.0744 -82.7239 North 415 478 35,000 1,350 Climbing Jacksonville Center
Tue 01:31:57 PM 29.1869 -82.7142 North 423 487 36,700 1,550 Climbing Jacksonville Center
Tue 01:32:57 PM 29.2978 -82.7044 North 411 473 38,100 1,050 Climbing Jacksonville Center
Tue 01:33:57 PM 29.4019 -82.6947 North 390 449 38,800 600 Climbing Jacksonville Center
Tue 01:34:57 PM 29.5003 -82.6969 359° North 384 442 39,300 450 Climbing Jacksonville Center
Tue 01:35:57 PM 29.6067 -82.6942 North 384 442 39,700 400 Climbing Jacksonville Center
Tue 01:36:57 PM 29.7153 -82.6917 North 384 442 40,100 400 Climbing Jacksonville Center
Tue 01:37:57 PM 29.8217 -82.6939 359° North 379 436 40,500 450 Climbing Jacksonville Center
Tue 01:38:57 PM 29.9261 -82.6936 360° North 379 436 41,000 250 Climbing Jacksonville Center
Tue 01:39:57 PM 30.0347 -82.6886 North 379 436 41,000  Level Jacksonville Center
Tue 01:40:57 PM 30.1472 -82.6861 North 384 442 41,000  Level Jacksonville Center
Tue 01:41:57 PM 30.2558 -82.6858 360° North 384 442 41,000  Level Jacksonville Center
Tue 01:42:57 PM 30.3667 -82.6856 360° North 384 442 41,000  Level Jacksonville Center
Tue 01:43:57 PM 30.4772 -82.6853 360° North 384 442 41,000  Level Jacksonville Center
Tue 01:44:57 PM 30.5858 -82.6753 North 384 442 41,000  Level Jacksonville Center
Tue 01:45:57 PM 30.6964 -82.6558 North 384 442 41,000  Level Jacksonville Center
Tue 01:46:57 PM 30.8050 -82.6386 North 389 448 41,000  Level Jacksonville Center
Tue 01:47:57 PM 30.9178 -82.6189 North 389 448 41,000  Level Jacksonville Center
Tue 01:48:57 PM 31.0261 -82.6017 North 389 448 41,000  Level Jacksonville Center
Tue 01:49:57 PM 31.1347 -82.5844 North 389 448 41,000  Level Jacksonville Center
Tue 01:50:57 PM 31.2433 -82.5622 10° North 389 448 41,000  Level Jacksonville Center
Tue 01:51:57 PM 31.3622 -82.5422 North 389 448 41,000  Level Jacksonville Center
Tue 01:52:57 PM 31.4625 -82.5200 11° North 389 448 41,000  Level Jacksonville Center
Tue 01:55:05 PM 31.6972 -82.4842 North 401 461 41,000  Level Atlanta Center
Tue 01:56:05 PM 31.8075 -82.4700 North 401 461 41,000  Level Atlanta Center
Tue 01:57:05 PM 31.9139 -82.4508 North 391 450 41,000  Level Atlanta Center
Tue 01:58:05 PM 32.0200 -82.4344 North 384 442 41,000  Level Atlanta Center
Tue 01:59:05 PM 32.1325 -82.4178 North 390 449 41,000  Level Atlanta Center
Tue 02:00:05 PM 32.2492 -82.3983 North 390 449 41,000  Level Atlanta Center
Tue 02:01:05 PM 32.3575 -82.3767 10° North 390 449 41,000  Level Atlanta Center
Tue 02:02:05 PM 32.4678 -82.3622 North 390 449 41,000  Level Atlanta Center
Tue 02:03:05 PM 32.5761 -82.3431 North 390 449 41,000  Level Atlanta Center
Tue 02:04:05 PM 32.6844 -82.3261 North 390 449 41,000  Level Atlanta Center
Tue 02:05:05 PM 32.7969 -82.3114 North 390 449 41,000  Level Atlanta Center
Tue 02:06:05 PM 32.9072 -82.2919 North 390 449 41,000  Level Atlanta Center
Tue 02:07:05 PM 33.0197 -82.2750 North 396 456 41,000  Level Atlanta Center
Tue 02:08:05 PM 33.1300 -82.2578 North 396 456 41,000  Level Atlanta Center
Tue 02:09:05 PM 33.2406 -82.2381 North 396 456 41,000  Level Atlanta Center
Tue 02:10:05 PM 33.3528 -82.2183 North 401 461 41,000  Level Atlanta Center
Tue 02:11:05 PM 33.4633 -82.2011 North 401 461 41,000  Level Atlanta Center
Tue 02:12:05 PM 33.5756 -82.1839 North 406 467 41,000  Level Atlanta Center
Tue 02:13:05 PM 33.6756 -82.1642 North 406 467 41,000  Level Atlanta Center
Tue 02:14:05 PM 33.7858 -82.1467 North 406 467 41,000  Level Atlanta Center
Tue 02:15:05 PM 33.8964 -82.1292 North 406 467 41,000  Level Atlanta Center
Tue 02:16:05 PM 34.0067 -82.1092 North 406 467 41,000  Level Atlanta Center
Tue 02:17:05 PM 34.1147 -82.0917 North 406 467 41,000  Level Atlanta Center
Tue 02:18:05 PM 34.2250 -82.0717 North 406 467 41,000  Level Atlanta Center
Tue 02:19:05 PM 34.3353 -82.0514 North 406 467 41,000  Level Atlanta Center
Tue 02:20:05 PM 34.4431 -82.0036 20° North 406 467 41,000  Level Atlanta Center
Tue 02:21:05 PM 34.5508 -81.9506 22° Northeast 406 467 41,000  Level Atlanta Center
Tue 02:22:05 PM 34.6689 -81.9022 19° North 412 474 41,000  Level Atlanta Center
Tue 02:23:05 PM 34.7764 -81.8489 22° Northeast 407 468 41,000  Level Atlanta Center
Tue 02:24:05 PM 34.8842 -81.8006 20° North 407 468 41,000  Level Atlanta Center
Tue 02:25:05 PM 34.9917 -81.7442 23° Northeast 412 474 41,000  Level Atlanta Center
Tue 02:26:05 PM 35.1033 -81.6931 21° North 414 476 41,000  Level Atlanta Center
Tue 02:27:05 PM 35.2006 -81.6469 21° North 414 476 41,000  Level Atlanta Center
Tue 02:28:05 PM 35.3119 -81.5928 22° Northeast 419 482 41,000  Level Atlanta Center
Tue 02:30:05 PM 35.5372 -81.4867 21° North 426 490 41,000  Level Atlanta Center
Tue 02:31:05 PM 35.6633 -81.4289 20° North 431 496 41,000  Level Atlanta Center
Tue 02:32:05 PM 35.7542 -81.3825 23° Northeast 436 502 41,000  Level Atlanta Center
Tue 02:33:05 PM 35.8883 -81.3142 22° Northeast 436 502 41,000  Level Atlanta Center
Tue 02:34:05 PM 35.9975 -81.2592 22° Northeast 429 494 41,000  Level Atlanta Center
Tue 02:35:05 PM 36.1089 -81.2039 22° Northeast 434 499 41,000  Level Atlanta Center
Tue 02:36:05 PM 36.2078 -81.1542 22° Northeast 428 493 41,000  Level Atlanta Center
Tue 02:37:05 PM 36.3214 -81.0986 22° Northeast 428 493 41,000  Level Atlanta Center
Tue 02:38:05 PM 36.4306 -81.0431 22° Northeast 428 493 41,000  Level Atlanta Center
Tue 02:39:05 PM 36.5417 -80.9872 22° Northeast 428 493 41,000  Level Atlanta Center
Tue 02:40:57 PM 36.7547 -80.8806 22° Northeast 471 542 41,000  Level Washington Center
Tue 02:41:57 PM 36.8719 -80.8264 20° North 442 509 41,000  Level Washington Center
Tue 02:42:57 PM 36.9831 -80.7689 22° Northeast 405 466 41,000  Level Washington Center
Tue 02:43:57 PM 37.0961 -80.7114 22° Northeast 411 473 41,000  Level Washington Center
Tue 02:44:57 PM 37.1922 -80.6578 24° Northeast 422 486 41,000  Level Washington Center
Tue 02:45:57 PM 37.3033 -80.5972 23° Northeast 422 486 41,000  Level Washington Center
Tue 02:46:57 PM 37.4142 -80.5367 23° Northeast 427 491 41,000  Level Washington Center
Tue 02:47:57 PM 37.5253 -80.4731 24° Northeast 427 491 41,000 -200 Level Washington Center
Tue 02:48:57 PM 37.6383 -80.4122 23° Northeast 427 491 40,600 -500 Descending Washington Center
Tue 02:49:57 PM 37.7600 -80.3464 23° Northeast 427 491 40,000 -500 Descending Washington Center
Tue 02:50:57 PM 37.8667 -80.2847 25° Northeast 427 491 39,600 -550 Descending Washington Center
Tue 02:51:57 PM 37.9711 -80.2253 24° Northeast 427 491 38,900 -650 Descending Washington Center
Tue 02:52:57 PM 38.0736 -80.1658 25° Northeast 415 478 38,300 -750 Descending Washington Center
Tue 02:53:57 PM 38.1672 -80.1133 24° Northeast 402 463 37,400 -850 Descending Washington Center
Tue 02:54:57 PM 38.2675 -80.0561 24° Northeast 397 457 36,600 -850 Descending Washington Center
Tue 02:55:57 PM 38.3633 -79.9981 25° Northeast 383 441 35,700 -900 Descending Washington Center
Tue 02:56:57 PM 38.4614 -79.9431 24° Northeast 383 441 34,800 -900 Descending Washington Center
Tue 02:57:57 PM 38.5594 -79.8878 24° Northeast 383 441 33,900 -900 Descending Washington Center
Tue 02:58:57 PM 38.6744 -79.8200 25° Northeast 399 459 33,000 -450 Descending Washington Center
Tue 02:59:57 PM 38.7764 -79.7619 24° Northeast 399 459 33,000  Level Washington Center
Tue 03:00:57 PM 38.8786 -79.7036 24° Northeast 404 465 33,000  Level Washington Center
Tue 03:03:02 PM 39.0892 -79.5694 26° Northeast 394 453 33,000  Level Cleveland Center
Tue 03:04:02 PM 39.1931 -79.5119 23° Northeast 394 453 33,000  Level Cleveland Center
Tue 03:05:02 PM 39.2944 -79.4511 25° Northeast 394 453 33,000  Level Cleveland Center
Tue 03:06:02 PM 39.3961 -79.3931 24° Northeast 394 453 33,000  Level Cleveland Center
Tue 03:07:02 PM 39.4975 -79.3322 25° Northeast 394 453 33,000  Level Cleveland Center
Tue 03:08:02 PM 39.5989 -79.2711 25° Northeast 394 453 33,000  Level Cleveland Center
Tue 03:09:02 PM 39.7003 -79.2125 24° Northeast 394 453 33,000  Level Cleveland Center
Tue 03:10:02 PM 39.8039 -79.1508 25° Northeast 394 453 33,000  Level Cleveland Center
Tue 03:11:02 PM 39.8969 -79.0922 26° Northeast 402 463 33,000  Level Cleveland Center
Tue 03:12:02 PM 40.0003 -79.0328 24° Northeast 402 463 33,000 -450 Level Cleveland Center
Tue 03:13:02 PM 40.0994 -78.9681 27° Northeast 397 457 32,100 -800 Descending Cleveland Center
Tue 03:14:02 PM 40.2008 -78.9058 25° Northeast 397 457 31,400 -750 Descending Cleveland Center
Tue 03:15:02 PM 40.3019 -78.8461 24° Northeast 397 457 30,600 -1,100 Descending Cleveland Center
Tue 03:16:02 PM 40.4017 -78.8219 10° North 383 441 29,200 -1,650 Descending Cleveland Center
Tue 03:17:02 PM 40.5036 -78.8028 North 375 432 27,300 -1,900 Descending Cleveland Center
Tue 03:18:02 PM 40.6033 -78.7864 North 369 425 25,400 -1,900 Descending Cleveland Center
Tue 03:19:02 PM 40.7031 -78.7672 North 369 425 23,500 -1,900 Descending Cleveland Center
Tue 03:20:02 PM 40.8031 -78.7508 North 369 425 21,600 -1,950 Descending Cleveland Center
Tue 03:21:02 PM 40.9089 -78.7314 North 369 425 19,600 -1,950 Descending Cleveland Center
Tue 03:22:02 PM 41.0086 -78.7119 North 369 425 17,700 -1,900 Descending Cleveland Center
Tue 03:23:02 PM 41.1086 -78.6953 North 369 425 15,800 -1,900 Descending Cleveland Center
Tue 03:24:02 PM 41.2083 -78.6786 North 364 419 13,900 -1,850 Descending Cleveland Center
Tue 03:25:02 PM 41.3019 -78.6594 North 352 405 12,100 -1,700 Descending Cleveland Center
Tue 03:26:02 PM 41.3850 -78.6431 North 327 376 10,500 -1,500 Descending Cleveland Center
Tue 03:27:02 PM 41.4619 -78.6297 North 299 344 9,100 -1,450 Descending Cleveland Center
Tue 03:28:02 PM 41.5367 -78.6164 North 280 322 7,600 -1,550 Descending Cleveland Center
Tue 03:29:02 PM 41.6094 -78.6003 North 268 308 6,000 -1,350 Descending Cleveland Center
Tue 03:30:02 PM 41.6717 -78.5900 North 247 284 4,900 -1,050 Descending Cleveland Center
Tue 03:31:02 PM 41.7319 -78.5797 North 229 264 3,900 -1,000 Descending Cleveland Center
Tue 03:32:02 PM 41.7742 -78.6008 340° North 198 228 2,900 -750 Descending Cleveland Center
Tue 03:33:02 PM 41.8161 -78.6272 335° Northwest 154 177 2,400 800 Descending Cleveland Center
Tue 03:34:02 PM 41.8583 -78.6456 342° North 154 177 4,500 1,050 Climbing Cleveland Center
Tue 03:35:02 PM 41.9003 -78.6667 339° North 154 177 4,500  Level Cleveland Center

Login

Don't have an account? Register now (free) for customized features, flight alerts, and more!